Time;durP1;ratioP1;P1;durP2;ratioP2;P2;SDS_P1;SDS_P2;PMS_P1;PMS_P2;Temp;Humidity;BMP_temperature;BMP_pressure;BME280_temperature;BME280_humidity;BME280_pressure;Samples;Min_cycle;Max_cycle;Signal;HPM_P1;HPM_P2
2021/06/06 00:01:40;;;;;;;29.25;18.05;;;;;;;13.09;62.05;99205.30;126020;1093;102984;-69
2021/06/06 00:04:16;;;;;;;30.93;19.00;;;;;;;12.94;62.19;99198.52;126044;1093;103020;-70
2021/06/06 00:07:05;;;;;;;28.57;17.73;;;;;;;12.83;62.51;99199.39;126070;1093;102927;-70
2021/06/06 00:09:34;;;;;;;28.77;17.07;;;;;;;12.84;62.55;99194.92;126046;1093;103044;-69
2021/06/06 00:12:03;;;;;;;28.10;16.23;;;;;;;12.84;62.57;99192.25;126012;1093;102910;-70
2021/06/06 00:14:35;;;;;;;25.20;15.73;;;;;;;12.83;62.77;99183.38;126005;1093;103084;-70
2021/06/06 00:17:07;;;;;;;26.47;15.53;;;;;;;12.85;62.81;99188.58;125988;1093;102954;-70
2021/06/06 00:19:38;;;;;;;24.00;14.98;;;;;;;12.84;62.97;99181.57;126001;1092;102929;-70
2021/06/06 00:22:07;;;;;;;25.30;14.83;;;;;;;12.85;62.86;99180.56;125985;1092;102929;-70
2021/06/06 00:24:37;;;;;;;25.97;15.60;;;;;;;12.86;62.80;99183.13;126063;1093;103049;-70
2021/06/06 00:27:07;;;;;;;27.10;14.60;;;;;;;12.80;62.69;99181.81;126047;1093;103057;-70
2021/06/06 00:29:35;;;;;;;25.10;14.53;;;;;;;12.73;62.84;99193.09;125980;1093;103073;-70
2021/06/06 00:32:05;;;;;;;25.83;15.80;;;;;;;12.60;62.88;99185.21;126012;1093;102906;-70
2021/06/06 00:34:33;;;;;;;27.10;16.20;;;;;;;12.50;63.02;99185.94;125981;1093;103015;-70
2021/06/06 00:37:02;;;;;;;26.57;16.57;;;;;;;12.52;63.24;99180.50;126006;1092;102994;-71
2021/06/06 00:39:30;;;;;;;25.50;15.97;;;;;;;12.54;63.41;99178.55;126000;1092;103150;-70
2021/06/06 00:41:59;;;;;;;26.40;16.23;;;;;;;12.58;63.43;99181.81;125968;1093;102934;-70
2021/06/06 00:44:28;;;;;;;29.75;15.55;;;;;;;12.57;63.27;99182.78;125998;1093;102991;-71
2021/06/06 00:46:59;;;;;;;26.17;16.83;;;;;;;12.55;63.41;99177.58;126010;1093;103390;-71
2021/06/06 00:49:27;;;;;;;27.10;16.20;;;;;;;12.51;63.44;99173.46;126027;1093;102935;-73
2021/06/06 00:51:59;;;;;;;25.80;15.03;;;;;;;12.49;63.52;99172.73;126009;1093;103180;-71
2021/06/06 00:54:32;;;;;;;26.70;15.17;;;;;;;12.45;63.50;99180.11;125978;1093;103023;-71
2021/06/06 00:57:08;;;;;;;26.65;15.00;;;;;;;12.45;63.74;99174.77;126007;1092;102907;-70
2021/06/06 00:59:41;;;;;;;23.77;14.17;;;;;;;12.46;63.89;99176.47;125998;1093;103431;-70
2021/06/06 01:02:10;;;;;;;24.00;14.43;;;;;;;12.47;63.74;99175.50;126016;1092;103015;-70
2021/06/06 01:04:41;;;;;;;25.27;13.47;;;;;;;12.47;63.54;99178.17;126009;1093;103068;-70
2021/06/06 01:07:10;;;;;;;24.27;12.77;;;;;;;12.46;63.63;99183.64;125988;1093;103055;-71
2021/06/06 01:09:38;;;;;;;25.10;13.97;;;;;;;12.42;63.78;99180.38;126038;1093;103007;-70
2021/06/06 01:12:18;;;;;;;24.20;14.03;;;;;;;12.40;63.65;99173.45;125993;1093;103048;-71
2021/06/06 01:14:54;;;;;;;24.53;13.97;;;;;;;12.40;63.70;99176.12;126092;1093;102903;-70
2021/06/06 01:17:46;;;;;;;25.77;15.17;;;;;;;12.38;63.78;99181.59;126056;1093;103050;-71
2021/06/06 01:20:37;;;;;;;25.13;13.67;;;;;;;12.36;63.99;99175.52;126028;1093;102932;-69
2021/06/06 01:23:29;;;;;;;24.77;14.03;;;;;;;12.33;63.82;99179.27;126120;1091;103077;-70
2021/06/06 01:26:26;;;;;;;25.53;14.07;;;;;;;12.32;63.82;99184.73;126016;1093;103034;-72
2021/06/06 01:29:35;;;;;;;24.57;13.67;;;;;;;12.30;64.24;99187.50;125994;1093;102906;-73
2021/06/06 01:32:21;;;;;;;27.10;15.50;;;;;;;12.27;64.00;99189.57;125880;1093;103039;-70
2021/06/06 01:35:02;;;;;;;25.73;15.50;;;;;;;12.21;64.06;99186.41;125951;1092;102991;-70
2021/06/06 01:37:32;;;;;;;24.67;13.87;;;;;;;12.20;64.05;99187.38;126034;1093;102988;-70
2021/06/06 01:40:06;;;;;;;24.87;13.80;;;;;;;12.20;63.99;99186.55;126011;1093;102907;-70
2021/06/06 01:42:41;;;;;;;25.20;12.83;;;;;;;12.16;64.21;99188.58;126048;1093;102909;-70
2021/06/06 01:45:22;;;;;;;22.27;13.00;;;;;;;12.14;64.24;99181.68;126002;1093;102904;-69
2021/06/06 01:47:52;;;;;;;24.43;13.67;;;;;;;12.14;64.10;99190.52;125985;1093;102924;-70
2021/06/06 01:50:25;;;;;;;23.43;13.63;;;;;;;12.11;64.23;99181.92;126017;1091;102935;-70
2021/06/06 01:52:57;;;;;;;23.00;12.90;;;;;;;12.09;64.33;99176.69;126008;1092;102999;-70
2021/06/06 01:55:32;;;;;;;25.20;12.07;;;;;;;12.04;64.03;99181.52;126027;1093;102985;-70
2021/06/06 01:58:04;;;;;;;24.27;12.50;;;;;;;12.02;64.03;99191.48;126000;1093;103170;-70
2021/06/06 02:01:04;;;;;;;26.43;14.43;;;;;;;11.99;64.48;99187.22;125997;1092;103025;-70
2021/06/06 02:03:33;;;;;;;22.00;11.57;;;;;;;11.97;64.21;99189.12;126010;1093;102919;-70
2021/06/06 02:06:02;;;;;;;22.17;12.73;;;;;;;11.94;64.27;99186.69;126002;1093;102904;-70
2021/06/06 02:08:34;;;;;;;23.13;13.07;;;;;;;11.91;64.34;99186.92;126049;1093;102904;-70
2021/06/06 02:11:11;;;;;;;22.20;12.70;;;;;;;11.87;64.19;99180.13;126020;1093;103007;-69
2021/06/06 02:13:51;;;;;;;23.40;12.83;;;;;;;11.86;64.28;99187.28;126000;1093;102974;-70
2021/06/06 02:16:23;;;;;;;23.27;13.23;;;;;;;11.82;64.31;99183.15;126049;1093;103408;-70
2021/06/06 02:18:53;;;;;;;22.95;12.95;;;;;;;11.81;64.30;99184.11;126040;1093;102929;-69
2021/06/06 02:21:22;;;;;;;21.67;12.10;;;;;;;11.77;64.39;99179.98;126111;1092;103070;-72
2021/06/06 02:23:51;;;;;;;23.87;12.70;;;;;;;11.75;64.36;99188.11;126011;1091;102981;-71
2021/06/06 02:26:32;;;;;;;22.27;12.40;;;;;;;11.72;64.36;99182.14;126056;1093;103106;-68
2021/06/06 02:29:33;;;;;;;21.37;11.77;;;;;;;11.66;64.46;99179.94;126017;1093;102907;-71
2021/06/06 02:32:11;;;;;;;21.57;12.50;;;;;;;11.62;64.46;99185.49;125725;1093;103056;-72
2021/06/06 02:35:08;;;;;;;24.67;13.90;;;;;;;11.60;64.59;99187.45;126082;1093;103025;-73
2021/06/06 02:37:57;;;;;;;21.87;12.80;;;;;;;11.58;64.63;99184.05;126089;1091;103031;-78
2021/06/06 02:40:38;;;;;;;21.73;13.30;;;;;;;11.58;64.60;99192.05;126021;1093;102924;-77
2021/06/06 02:43:13;;;;;;;21.17;12.60;;;;;;;11.56;64.68;99187.78;126016;1093;102907;-74
2021/06/06 02:45:43;;;;;;;22.53;12.23;;;;;;;11.53;64.75;99182.68;126036;1092;103074;-74
2021/06/06 02:48:22;;;;;;;22.90;12.47;;;;;;;11.49;64.62;99179.41;126008;1092;103052;-72
2021/06/06 02:50:55;;;;;;;21.93;12.13;;;;;;;11.43;64.59;99178.03;125969;1091;103032;-71
2021/06/06 02:53:29;;;;;;;21.87;13.13;;;;;;;11.44;64.83;99185.06;125948;1093;102906;-72
2021/06/06 02:56:13;;;;;;;23.13;12.20;;;;;;;11.41;65.04;99182.63;125980;1093;103145;-67
2021/06/06 02:58:46;;;;;;;22.23;12.73;;;;;;;11.44;64.99;99179.73;125952;1092;102929;-68
2021/06/06 03:01:31;;;;;;;21.97;11.70;;;;;;;11.46;64.93;99179.64;125978;1091;103053;-69
2021/06/06 03:04:05;;;;;;;22.50;12.33;;;;;;;11.45;64.97;99183.27;125974;1093;103003;-68
2021/06/06 03:06:41;;;;;;;22.13;12.73;;;;;;;11.50;65.07;99182.91;125966;1091;102986;-68
2021/06/06 03:09:11;;;;;;;24.00;12.30;;;;;;;11.52;65.00;99184.52;126083;1093;103036;-70
2021/06/06 03:11:43;;;;;;;21.33;11.53;;;;;;;11.51;65.04;99181.94;126146;1093;103367;-69
2021/06/06 03:14:20;;;;;;;24.30;12.27;;;;;;;11.51;65.01;99187.27;125821;1093;103002;-76
2021/06/06 03:16:54;;;;;;;26.73;12.63;;;;;;;11.49;65.00;99190.06;125959;1093;103044;-77
2021/06/06 03:19:27;;;;;;;22.87;13.00;;;;;;;11.49;65.04;99184.73;126100;1092;102996;-69
2021/06/06 03:21:56;;;;;;;22.93;13.50;;;;;;;11.51;65.35;99189.94;125737;1093;102992;-69
2021/06/06 03:24:51;;;;;;;23.10;13.43;;;;;;;11.50;65.27;99183.77;125935;1091;102988;-71
2021/06/06 03:27:24;;;;;;;21.50;12.53;;;;;;;11.47;65.20;99184.00;125966;1093;103002;-70
2021/06/06 03:29:52;;;;;;;23.50;13.40;;;;;;;11.47;65.32;99184.83;125732;1093;103059;-77
2021/06/06 03:32:28;;;;;;;29.37;12.57;;;;;;;11.52;65.32;99188.97;126124;1092;102924;-67
2021/06/06 03:34:56;;;;;;;21.90;12.73;;;;;;;11.55;65.45;99191.41;125994;1092;102900;-69
2021/06/06 03:37:25;;;;;;;23.67;14.20;;;;;;;11.56;65.47;99193.11;125959;1093;102946;-71
2021/06/06 03:39:55;;;;;;;21.73;12.60;;;;;;;11.58;65.26;99196.51;125995;1093;102911;-72
2021/06/06 03:42:25;;;;;;;22.07;12.10;;;;;;;11.60;65.41;99192.78;125977;1092;102993;-70
2021/06/06 03:44:54;;;;;;;22.60;11.60;;;;;;;11.61;65.42;99194.45;125972;1093;103018;-74
2021/06/06 03:47:23;;;;;;;35.93;21.23;;;;;;;11.61;65.58;99189.13;126009;1092;102910;-68
2021/06/06 03:49:51;;;;;;;24.30;13.07;;;;;;;11.59;65.64;99196.41;125903;1093;103072;-71
2021/06/06 03:52:20;;;;;;;21.63;12.10;;;;;;;11.60;65.63;99194.58;126011;1092;103116;-72
2021/06/06 03:54:48;;;;;;;22.80;12.37;;;;;;;11.65;65.79;99204.88;126008;1092;103052;-72
2021/06/06 03:57:17;;;;;;;20.83;11.83;;;;;;;11.68;65.92;99205.52;125715;1093;103451;-70
2021/06/06 03:59:46;;;;;;;23.17;12.57;;;;;;;11.73;65.76;99213.16;125969;1093;102927;-69
2021/06/06 04:02:14;;;;;;;22.00;12.43;;;;;;;11.77;65.76;99209.30;125940;1093;102932;-71
2021/06/06 04:04:43;;;;;;;21.65;12.45;;;;;;;11.84;65.83;99207.00;126005;1092;103140;-70
2021/06/06 04:07:12;;;;;;;23.30;13.75;;;;;;;11.90;65.83;99206.55;125967;1093;103078;-69
2021/06/06 04:09:40;;;;;;;22.53;13.20;;;;;;;11.94;66.16;99208.02;125957;1093;102952;-69
2021/06/06 04:12:09;;;;;;;23.80;14.77;;;;;;;11.95;65.92;99204.38;125976;1092;102989;-70
2021/06/06 04:14:38;;;;;;;25.80;14.77;;;;;;;11.98;66.06;99212.14;125952;1093;102984;-70
2021/06/06 04:17:06;;;;;;;23.17;13.10;;;;;;;12.02;66.15;99213.64;126014;1093;102985;-69
2021/06/06 04:19:35;;;;;;;22.30;12.43;;;;;;;12.07;66.00;99210.61;125970;1093;103007;-70
2021/06/06 04:22:03;;;;;;;21.03;12.83;;;;;;;12.12;66.26;99211.11;125961;1093;102999;-70
2021/06/06 04:24:33;;;;;;;21.93;13.83;;;;;;;12.14;66.11;99209.18;125768;1093;102898;-71
2021/06/06 04:27:01;;;;;;;22.87;14.33;;;;;;;12.21;66.47;99207.74;125974;1090;102907;-71
2021/06/06 04:29:30;;;;;;;28.67;17.03;;;;;;;12.29;66.38;99206.30;126048;1092;103039;-70
2021/06/06 04:32:01;;;;;;;38.10;24.57;;;;;;;12.38;66.72;99205.59;125747;1093;103081;-70
2021/06/06 04:34:31;;;;;;;38.40;27.25;;;;;;;12.52;66.77;99207.17;125953;1092;102988;-70
2021/06/06 04:37:01;;;;;;;43.43;30.03;;;;;;;12.64;66.94;99208.02;126016;1093;102906;-71
2021/06/06 04:39:29;;;;;;;44.13;30.23;;;;;;;12.75;66.85;99215.16;125978;1092;102907;-69
2021/06/06 04:41:57;;;;;;;42.43;31.17;;;;;;;12.85;67.04;99212.60;126014;1092;102906;-70
2021/06/06 04:44:26;;;;;;;44.17;31.53;;;;;;;12.94;66.95;99204.73;125834;1093;102955;-71
2021/06/06 04:46:54;;;;;;;45.77;32.23;;;;;;;13.04;66.88;99204.83;125967;1093;102927;-70
2021/06/06 04:49:23;;;;;;;42.93;30.73;;;;;;;13.14;66.99;99209.42;125959;1092;102997;-70
2021/06/06 04:51:52;;;;;;;44.37;31.37;;;;;;;13.21;67.22;99208.80;125912;1093;102964;-70
2021/06/06 04:54:20;;;;;;;45.30;31.50;;;;;;;13.29;67.03;99204.65;125988;1091;103405;-70
2021/06/06 04:56:49;;;;;;;42.60;31.10;;;;;;;13.36;67.06;99212.03;125970;1091;103044;-69
2021/06/06 04:59:18;;;;;;;45.37;31.60;;;;;;;13.44;67.06;99207.91;125937;1093;102950;-70
2021/06/06 05:01:46;;;;;;;44.13;30.17;;;;;;;13.53;67.16;99201.81;126015;1092;102902;-72
2021/06/06 05:04:16;;;;;;;39.03;28.80;;;;;;;13.61;67.09;99209.18;125780;1093;103024;-70
2021/06/06 05:06:44;;;;;;;41.67;29.70;;;;;;;13.70;67.17;99211.09;126159;1093;103143;-70
2021/06/06 05:09:12;;;;;;;38.07;28.57;;;;;;;13.77;67.00;99216.77;126090;1093;103054;-70
2021/06/06 05:11:41;;;;;;;44.13;28.93;;;;;;;13.84;66.98;99212.60;125940;1092;103400;-71
2021/06/06 05:14:09;;;;;;;39.03;27.27;;;;;;;13.92;67.02;99211.95;125978;1091;103172;-71
2021/06/06 05:16:37;;;;;;;38.23;28.07;;;;;;;13.97;67.21;99213.27;125985;1093;102956;-71
2021/06/06 05:19:06;;;;;;;34.70;25.53;;;;;;;14.06;67.22;99210.80;125980;1093;103373;-71
2021/06/06 05:21:34;;;;;;;38.23;26.10;;;;;;;14.12;67.28;99218.28;125971;1092;102912;-70
2021/06/06 05:24:04;;;;;;;35.50;25.87;;;;;;;14.21;67.19;99209.47;125896;1092;102979;-70
2021/06/06 05:26:33;;;;;;;37.27;25.63;;;;;;;14.28;67.36;99217.81;125981;1093;103147;-70
2021/06/06 05:29:03;;;;;;;36.43;24.40;;;;;;;14.33;67.40;99212.08;126018;1092;103040;-70
2021/06/06 05:31:32;;;;;;;36.03;24.20;;;;;;;14.40;67.35;99214.08;126014;1093;102900;-70
2021/06/06 05:34:02;;;;;;;37.03;25.00;;;;;;;14.47;67.35;99205.53;125741;1093;102675;-70
2021/06/06 05:36:30;;;;;;;36.03;25.70;;;;;;;14.56;67.30;99212.77;125984;1091;102910;-70
2021/06/06 05:38:58;;;;;;;36.23;25.80;;;;;;;14.68;67.42;99205.48;126010;1093;103025;-70
2021/06/06 05:41:27;;;;;;;34.80;24.07;;;;;;;14.79;67.26;99207.23;125980;1091;103410;-70
2021/06/06 05:43:55;;;;;;;34.30;23.93;;;;;;;14.93;67.48;99206.88;126022;1091;102999;-70
2021/06/06 05:46:26;;;;;;;31.13;21.53;;;;;;;15.09;67.46;99200.99;126008;1092;102894;-70
2021/06/06 05:48:54;;;;;;;30.40;18.83;;;;;;;15.21;67.41;99207.07;125944;1093;102910;-69
2021/06/06 05:51:23;;;;;;;32.30;20.20;;;;;;;15.34;67.32;99206.80;125981;1093;103077;-69
2021/06/06 05:53:52;;;;;;;30.63;19.20;;;;;;;15.42;67.31;99204.28;125853;1093;102926;-70
2021/06/06 05:56:22;;;;;;;34.00;21.47;;;;;;;15.54;67.33;99212.20;126044;1093;102904;-71
2021/06/06 05:58:53;;;;;;;25.63;16.57;;;;;;;15.62;67.31;99209.67;125977;1093;103041;-70
2021/06/06 06:01:22;;;;;;;22.60;13.93;;;;;;;15.74;67.28;99207.69;125993;1091;103148;-69
2021/06/06 06:03:51;;;;;;;24.87;13.00;;;;;;;15.87;67.09;99202.92;126077;1093;103007;-71
2021/06/06 06:06:19;;;;;;;23.07;15.00;;;;;;;15.99;67.31;99202.75;125975;1093;103148;-69
2021/06/06 06:08:48;;;;;;;23.53;14.27;;;;;;;16.12;67.18;99210.48;126000;1091;102997;-72
2021/06/06 06:11:19;;;;;;;22.53;13.67;;;;;;;16.27;67.38;99210.91;126004;1092;103009;-72
2021/06/06 06:13:49;;;;;;;23.10;13.43;;;;;;;16.42;67.21;99211.29;125733;1093;103146;-69
2021/06/06 06:16:20;;;;;;;21.93;12.60;;;;;;;16.57;66.95;99211.66;126093;1092;103024;-69
2021/06/06 06:18:50;;;;;;;23.73;13.67;;;;;;;16.71;67.04;99216.53;126118;1093;103033;-69
2021/06/06 06:21:20;;;;;;;26.27;15.07;;;;;;;16.85;67.16;99212.54;126112;1093;101738;-69
2021/06/06 06:23:49;;;;;;;23.95;14.50;;;;;;;16.98;66.79;99209.53;126110;1092;103112;-70
2021/06/06 06:26:20;;;;;;;23.67;14.40;;;;;;;17.11;67.20;99225.30;126080;1093;102964;-70
2021/06/06 06:28:49;;;;;;;23.57;14.83;;;;;;;17.23;66.99;99209.80;126076;1093;103028;-70
2021/06/06 06:31:19;;;;;;;24.27;14.30;;;;;;;17.36;66.66;99217.48;125960;1091;102906;-71
2021/06/06 06:33:48;;;;;;;24.75;13.30;;;;;;;17.49;67.07;99217.97;126031;1091;103052;-69
2021/06/06 06:36:18;;;;;;;26.60;15.27;;;;;;;17.64;67.03;99214.77;126009;1092;102984;-70
2021/06/06 06:38:50;;;;;;;26.47;14.87;;;;;;;17.81;66.68;99213.06;126006;1091;103041;-70
2021/06/06 06:41:21;;;;;;;24.50;13.73;;;;;;;17.97;66.89;99218.56;125992;1092;102997;-69
2021/06/06 06:43:51;;;;;;;22.97;14.77;;;;;;;18.12;66.86;99212.66;125722;1093;103015;-69
2021/06/06 06:46:21;;;;;;;25.60;14.97;;;;;;;18.30;67.04;99218.86;126049;1092;103406;-69
2021/06/06 06:48:51;;;;;;;26.47;16.23;;;;;;;18.53;66.84;99215.62;126011;1091;103024;-68
2021/06/06 06:51:21;;;;;;;27.23;15.83;;;;;;;18.68;66.77;99215.86;126006;1092;103047;-69
2021/06/06 06:53:53;;;;;;;25.17;15.37;;;;;;;18.86;66.38;99209.56;126004;1092;102923;-68
2021/06/06 06:56:24;;;;;;;;;;;;;;;19.03;66.29;99208.63;126016;1093;103081;-70
2021/06/06 06:58:54;;;;;;;24.83;14.80;;;;;;;19.10;66.17;99216.07;125985;1093;103055;-70
2021/06/06 07:01:23;;;;;;;27.10;17.93;;;;;;;19.26;66.34;99209.88;125999;1093;102984;-72
2021/06/06 07:03:52;;;;;;;25.83;15.27;;;;;;;19.44;66.42;99210.61;125969;1093;102999;-69
2021/06/06 07:06:21;;;;;;;24.77;14.83;;;;;;;19.69;66.42;99212.50;125993;1092;102993;-69
2021/06/06 07:08:50;;;;;;;23.47;13.37;;;;;;;19.92;66.33;99208.14;125955;1091;102999;-69
2021/06/06 07:11:22;;;;;;;25.37;15.03;;;;;;;20.11;66.04;99206.13;126029;1092;101718;-70
2021/06/06 07:13:50;;;;;;;23.13;14.10;;;;;;;20.32;66.38;99208.29;126021;1091;102991;-70
2021/06/06 07:16:20;;;;;;;22.10;13.55;;;;;;;20.52;66.02;99207.89;126005;1092;103006;-70
2021/06/06 07:18:50;;;;;;;24.73;14.37;;;;;;;20.71;65.92;99205.83;125983;1093;103017;-69
2021/06/06 07:21:22;;;;;;;24.93;14.17;;;;;;;20.89;65.95;99202.91;125968;1092;102929;-69
2021/06/06 07:23:52;;;;;;;25.50;14.97;;;;;;;21.06;65.83;99203.68;125978;1092;103064;-69
2021/06/06 07:26:26;;;;;;;22.80;13.17;;;;;;;21.23;65.67;99205.27;125971;1093;102920;-69
2021/06/06 07:29:00;;;;;;;21.17;12.57;;;;;;;21.44;65.71;99200.23;125947;1092;103083;-70
2021/06/06 07:31:29;;;;;;;24.20;14.20;;;;;;;21.61;65.28;99201.83;126042;1091;104438;-71
2021/06/06 07:34:14;;;;;;;24.95;13.25;;;;;;;21.86;65.47;99197.09;126020;1093;102939;-69
2021/06/06 07:36:44;;;;;;;23.70;13.20;;;;;;;22.17;65.61;99192.61;126022;1092;102936;-70
2021/06/06 07:39:14;;;;;;;21.20;12.57;;;;;;;22.36;64.86;99203.92;125996;1092;103084;-73
2021/06/06 07:41:43;;;;;;;22.30;13.60;;;;;;;22.50;64.76;99199.56;126012;1093;103057;-70
2021/06/06 07:44:11;;;;;;;20.93;12.77;;;;;;;22.72;64.78;99197.79;126121;1093;102903;-70
2021/06/06 07:46:40;;;;;;;23.03;12.47;;;;;;;22.85;64.21;99200.69;126036;1093;102929;-71
2021/06/06 07:49:09;;;;;;;21.00;12.17;;;;;;;22.88;64.27;99213.02;125990;1093;102910;-69
2021/06/06 07:51:37;;;;;;;21.03;11.50;;;;;;;23.06;64.79;99196.34;125994;1091;102966;-68
2021/06/06 07:54:06;;;;;;;19.30;11.20;;;;;;;23.34;64.05;99207.36;125905;1091;103084;-69
2021/06/06 07:56:36;;;;;;;21.20;11.23;;;;;;;23.74;64.24;99204.23;126011;1092;102900;-69
2021/06/06 07:59:05;;;;;;;20.40;10.10;;;;;;;24.34;63.89;99194.92;126026;1092;102935;-71
2021/06/06 08:01:34;;;;;;;15.83;9.07;;;;;;;25.04;63.55;99202.25;126054;1092;102908;-73
2021/06/06 08:04:03;;;;;;;17.70;9.67;;;;;;;25.41;63.04;99192.72;126197;1091;102994;-74
2021/06/06 08:06:31;;;;;;;17.33;9.73;;;;;;;25.97;62.63;99193.46;126008;1092;102994;-76
2021/06/06 08:09:00;;;;;;;16.50;8.83;;;;;;;26.56;62.85;99198.25;125778;1093;103038;-73
2021/06/06 08:11:28;;;;;;;15.17;8.87;;;;;;;27.04;62.02;99197.92;126035;1092;102929;-71
2021/06/06 08:13:57;;;;;;;16.60;9.03;;;;;;;27.46;62.37;99199.39;125898;1093;103065;-72
2021/06/06 08:16:25;;;;;;;16.60;8.63;;;;;;;27.86;62.06;99198.30;126010;1092;102905;-76
2021/06/06 08:18:54;;;;;;;15.27;8.20;;;;;;;28.32;61.83;99193.54;125900;1091;103042;-74
2021/06/06 08:21:25;;;;;;;14.20;8.10;;;;;;;28.65;61.49;99193.17;125998;1093;102986;-75
2021/06/06 08:23:55;;;;;;;17.90;7.87;;;;;;;29.18;60.98;99195.52;125954;1091;102929;-75
2021/06/06 08:26:25;;;;;;;14.57;7.53;;;;;;;29.68;60.63;99188.97;126035;1093;102982;-76
2021/06/06 08:28:56;;;;;;;14.60;7.43;;;;;;;30.06;60.75;99195.97;125994;1093;103367;-75
2021/06/06 08:31:31;;;;;;;14.40;7.13;;;;;;;30.22;60.12;99193.58;125973;1092;103019;-80
2021/06/06 08:34:00;;;;;;;11.83;7.37;;;;;;;30.37;60.15;99191.20;126018;1093;102929;-85
2021/06/06 08:36:45;;;;;;;12.47;6.67;;;;;;;30.76;59.65;99196.22;126158;1093;103550;-77
2021/06/06 08:39:22;;;;;;;12.13;6.90;;;;;;;31.01;58.98;99195.89;126088;1093;102937;-75
2021/06/06 08:42:11;;;;;;;14.17;6.67;;;;;;;31.09;59.12;99194.70;125999;1093;102903;-76
2021/06/06 08:45:07;;;;;;;11.90;6.47;;;;;;;31.58;58.66;99194.27;125974;1091;103025;-76
2021/06/06 08:47:36;;;;;;;10.53;5.33;;;;;;;31.86;58.28;99186.25;126041;1093;103098;-74
2021/06/06 08:50:12;;;;;;;11.87;5.90;;;;;;;32.19;58.30;99196.42;126106;1092;103041;-75
2021/06/06 08:52:59;;;;;;;11.43;5.40;;;;;;;32.53;57.44;99201.05;126127;1091;102984;-75
2021/06/06 08:55:41;;;;;;;10.80;5.20;;;;;;;32.57;56.99;99204.14;126060;1093;102986;-76
2021/06/06 08:58:19;;;;;;;11.40;5.13;;;;;;;32.58;56.42;99198.38;125993;1092;103517;-78
2021/06/06 09:00:55;;;;;;;10.25;5.20;;;;;;;32.17;55.89;99200.48;126045;1093;103079;-77
2021/06/06 09:03:27;;;;;;;11.67;5.10;;;;;;;32.22;55.39;99192.31;125799;1093;102987;-75
2021/06/06 09:06:05;;;;;;;12.58;5.35;;;;;;;32.53;55.57;99186.47;126013;1092;103031;-74
2021/06/06 09:08:38;;;;;;;9.97;5.10;;;;;;;32.43;55.52;99179.72;125974;1093;102907;-76
2021/06/06 09:11:12;;;;;;;12.97;5.07;;;;;;;31.89;54.96;99186.57;126004;1092;103357;-76
2021/06/06 09:13:41;;;;;;;10.67;4.93;;;;;;;31.30;54.00;99187.72;126025;1093;102997;-74
2021/06/06 09:17:03;;;;;;;13.70;5.45;;;;;;;31.22;53.57;99174.37;125886;1093;102990;-75
2021/06/06 09:19:45;;;;;;;9.70;4.75;;;;;;;30.92;52.50;99174.55;125890;1092;103367;-76
2021/06/06 09:22:27;;;;;;;11.27;4.83;;;;;;;30.65;52.33;99169.61;126019;1092;102951;-76
2021/06/06 09:25:17;;;;;;;12.20;5.10;;;;;;;30.32;51.80;99171.06;125973;1092;102933;-74
2021/06/06 09:27:45;;;;;;;13.30;5.20;;;;;;;29.55;51.48;99166.16;126010;1093;103057;-76
2021/06/06 09:30:21;;;;;;;11.20;5.10;;;;;;;29.24;51.25;99168.06;125982;1093;103022;-74
2021/06/06 09:32:50;;;;;;;12.00;4.60;;;;;;;29.48;51.35;99168.16;126009;1091;103052;-77
2021/06/06 09:35:31;;;;;;;13.20;4.93;;;;;;;29.69;51.16;99163.23;126027;1092;103031;-76
2021/06/06 09:38:34;;;;;;;10.80;5.40;;;;;;;29.22;49.90;99169.34;125716;1092;103082;-77
2021/06/06 09:41:17;;;;;;;15.40;4.87;;;;;;;28.38;50.37;99163.38;126013;1092;102983;-76
2021/06/06 09:44:01;;;;;;;9.73;4.80;;;;;;;27.85;49.75;99164.69;126063;1093;103044;-76
2021/06/06 09:46:34;;;;;;;12.05;5.05;;;;;;;27.83;49.65;99161.33;126021;1093;103339;-77
2021/06/06 09:49:34;;;;;;;13.33;5.20;;;;;;;27.98;49.27;99157.41;125927;1093;102975;-75
2021/06/06 09:52:41;;;;;;;7.20;4.20;;;;;;;27.94;49.06;99160.59;125978;1092;103052;-75
2021/06/06 09:55:28;;;;;;;9.47;5.10;;;;;;;27.71;48.93;99171.30;125603;1094;103122;-76
2021/06/06 09:58:17;;;;;;;12.73;5.33;;;;;;;27.41;48.55;99163.70;125606;1096;103515;-76
2021/06/06 10:00:50;;;;;;;13.43;5.47;;;;;;;26.84;47.97;99167.13;125923;1092;102982;-75
2021/06/06 10:03:25;;;;;;;10.97;4.93;;;;;;;26.40;48.00;99162.19;125795;1092;102964;-78
2021/06/06 10:06:34;;;;;;;10.73;5.37;;;;;;;26.13;47.99;99159.52;126072;1092;103057;-76
2021/06/06 10:09:18;;;;;;;12.47;5.63;;;;;;;25.91;47.87;99163.47;126154;1092;102924;-77
2021/06/06 10:11:49;;;;;;;14.03;5.13;;;;;;;25.69;47.70;99160.95;126069;1091;102997;-78
2021/06/06 10:14:23;;;;;;;12.20;4.97;;;;;;;25.49;47.35;99158.21;125767;1093;102984;-76
2021/06/06 10:16:55;;;;;;;7.40;4.40;;;;;;;25.32;47.47;99146.84;125896;1092;103021;-77
2021/06/06 10:19:38;;;;;;;9.77;4.60;;;;;;;25.19;47.20;99151.20;126006;1092;102908;-75
2021/06/06 10:22:17;;;;;;;11.57;4.70;;;;;;;25.18;47.33;99138.63;125995;1092;102914;-74
2021/06/06 10:24:57;;;;;;;10.90;4.90;;;;;;;25.15;47.16;99149.11;125992;1092;103495;-76
2021/06/06 10:27:35;;;;;;;10.97;4.43;;;;;;;25.02;46.71;99145.29;126020;1091;103509;-78
2021/06/06 10:30:13;;;;;;;10.77;4.67;;;;;;;24.87;46.67;99150.03;125991;1093;103009;-78
2021/06/06 10:32:46;;;;;;;11.10;4.47;;;;;;;24.73;46.50;99143.70;126072;1091;103044;-77
2021/06/06 10:35:19;;;;;;;8.17;4.40;;;;;;;24.65;46.48;99155.57;126041;1092;102991;-78
2021/06/06 10:37:53;;;;;;;9.70;4.40;;;;;;;24.57;46.67;99156.59;125978;1093;103010;-77
2021/06/06 10:40:32;;;;;;;8.50;4.37;;;;;;;24.44;46.58;99156.50;126022;1093;102904;-75
2021/06/06 10:43:06;;;;;;;11.10;4.70;;;;;;;24.30;46.06;99150.97;125977;1091;103151;-79
2021/06/06 10:45:50;;;;;;;11.40;4.30;;;;;;;24.21;46.17;99157.63;126000;1091;103066;-76
2021/06/06 10:48:23;;;;;;;9.83;4.30;;;;;;;24.17;46.35;99154.45;126050;1092;102999;-75
2021/06/06 10:51:05;;;;;;;10.73;4.23;;;;;;;24.14;46.33;99146.69;125957;1093;102984;-73
2021/06/06 10:53:35;;;;;;;9.97;3.90;;;;;;;24.14;46.09;99152.13;125954;1093;103377;-75
2021/06/06 10:56:04;;;;;;;8.70;4.20;;;;;;;24.17;46.20;99138.14;126008;1092;103048;-76
2021/06/06 10:58:48;;;;;;;8.83;4.37;;;;;;;24.28;46.05;99146.79;125976;1092;102924;-76
2021/06/06 11:01:20;;;;;;;8.73;4.00;;;;;;;24.41;46.14;99133.29;126024;1091;102935;-77
2021/06/06 11:03:56;;;;;;;11.90;3.97;;;;;;;24.59;46.04;99142.77;125976;1093;103071;-76
2021/06/06 11:06:32;;;;;;;11.63;4.87;;;;;;;24.64;45.96;99137.58;126041;1092;103081;-78
2021/06/06 11:09:02;;;;;;;12.10;5.30;;;;;;;24.59;45.55;99137.34;125977;1093;102982;-76
2021/06/06 11:11:35;;;;;;;13.33;3.87;;;;;;;24.57;45.42;99133.98;125979;1091;103001;-76
2021/06/06 11:14:10;;;;;;;9.27;4.27;;;;;;;24.58;45.35;99125.64;126020;1092;102923;-77
2021/06/06 11:16:40;;;;;;;13.83;4.60;;;;;;;24.55;45.76;99136.91;125999;1092;103106;-76
2021/06/06 11:19:20;;;;;;;10.13;4.10;;;;;;;24.51;45.55;99154.66;126067;1091;102932;-80
2021/06/06 11:21:55;;;;;;;9.63;4.23;;;;;;;24.28;45.62;99155.77;126079;1092;103002;-75
2021/06/06 11:24:42;;;;;;;10.47;4.40;;;;;;;24.07;45.63;99154.80;126071;1092;103071;-75
2021/06/06 11:27:10;;;;;;;12.20;4.10;;;;;;;23.96;45.29;99168.06;126159;1092;102908;-77
2021/06/06 11:29:44;;;;;;;10.13;4.87;;;;;;;23.81;45.42;99151.86;125969;1092;103354;-76
2021/06/06 11:32:22;;;;;;;10.07;4.60;;;;;;;23.61;45.36;99161.51;126017;1091;102932;-77
2021/06/06 11:35:13;;;;;;;15.77;6.00;;;;;;;23.39;45.45;99155.23;126005;1092;102968;-77